Terminal Aerodrome Forecast
Issued by NWS

Home | Current Version | Previous Version | Text Only | Print | Product List | Glossary On
Versions: 1 2 3 4 5 6 7 8 9 10 11 12 13 14 15 16 17 18 19 20 21 22 23 24 25 26 27 28 29 30 31 32 33 34 35 36 37
000
FTUS43 KPAH 271720
TAFOWB
TAF
KOWB 271720Z 2718/2818 15010KT P6SM SCT040 BKN080
     FM272100 20012G18KT P6SM VCTS BKN040CB
      TEMPO 2721/2724 3SM TSRA OVC030CB
     FM280300 30003KT P6SM BKN035
     FM280900 32005KT 4SM BR OVC015
     FM281400 36007KT P6SM BKN020=

USA.gov is the U.S. government's official web portal to all federal, state and local government web resources and services.